Sunday, January 21, 2018, 8:37 PM GMT
Back to Local

CWQO, Ile Bicquette, Que.

Location: , , Canada Lat: 48.416
Local Time: 8:37 PM GMT (20:37 GMT) Lon: -68.893
Time Zone: GMT Elev: 22 ft

Show me the last for .
Show Coded

Time T Td Feel RH Dir Speed Gust Alt SLP Vis Weather Sky Remarks
2018-01-21 20:00 17 8 -1 66 240° 24 - - - 0 Peak wind: 31 mph (27 kts) from 250° at 24 min
2018-01-21 19:00 17 7 0 63 270° 22 - - - 0 Peak wind: 27 mph (24 kts) from 260° at 22 min
2018-01-21 18:00 18 7 -1 60 280° 23 29 - - 0 Peak wind: 28 mph (25 kts) from 280° at 55 min
2018-01-21 17:00 16 5 1 60 270° 16 - - - 0 Peak wind: 23 mph (20 kts) from 280° at 15 min
2018-01-21 16:00 15 4 -4 60 270° 16 23 - - 0 Peak wind: 26 mph (23 kts) from 280° at 08 min
2018-01-21 15:00 15 5 -5 63 280° 20 26 - - 0 Peak wind: 26 mph (23 kts) from 280° at 59 min
2018-01-21 14:00 14 2 -6 60 280° 18 24 - - 0 Peak wind: 24 mph (21 kts) from 280° at 50 min
2018-01-21 13:00 14 4 -3 64 280° 18 - - - 0 Peak wind: 23 mph (20 kts) from 280° at 45 min
2018-01-21 12:00 14 5 -3 65 290° 18 - - - 0 Peak wind: 24 mph (21 kts) from 290° at 15 min
2018-01-21 11:00 15 5 -3 63 290° 20 - - - 0 Peak wind: 26 mph (23 kts) from 290° at 31 min
2018-01-21 10:00 16 7 -2 67 290° 21 - - - 0 Peak wind: 28 mph (25 kts) from 290° at 21 min
2018-01-21 09:00 17 8 0 67 290° 18 - - - 0 Peak wind: 24 mph (21 kts) from 290° at 41 min
2018-01-21 08:00 17 7 1 64 280° 17 - - - 0 Peak wind: 25 mph (22 kts) from 290° at 16 min
2018-01-21 07:00 18 8 2 64 290° 18 - - - 0 Peak wind: 25 mph (22 kts) from 290° at 03 min
2018-01-21 06:00 19 8 2 63 290° 20 - - - 0 Peak wind: 26 mph (23 kts) from 280° at 01 min
2018-01-21 05:00 20 10 1 64 280° 25 32 - - 0 Peak wind: 32 mph (28 kts) from 280° at 51 min
2018-01-21 04:00 22 12 3 65 280° 24 30 - - 0 Peak wind: 34 mph (30 kts) from 280° at 43 min
2018-01-21 03:00 23 13 6 65 280° 28 - - - 0 Peak wind: 35 mph (31 kts) from 280° at 13 min
2018-01-21 02:00 24 14 6 64 280° 30 37 - - 0 Peak wind: 36 mph (32 kts) from 290° at 56 min
2018-01-21 01:00 27 17 11 66 280° 29 - - - 0 Peak wind: 39 mph (34 kts) from 280° at 34 min
2018-01-21 00:00 29 19 12 67 280° 31 37 - - 0 Peak wind: 40 mph (35 kts) from 250° at 00 min
2018-01-20 23:00 30 23 13 74 250° 32 41 - - 0 Peak wind: 41 mph (36 kts) from 250° at 57 min
2018-01-20 22:00 32 27 17 81 250° 32 - - - 0 Peak wind: 36 mph (32 kts) from 240° at 43 min
2018-01-20 21:00 34 30 18 85 240° 32 38 - - 0 Peak wind: 41 mph (36 kts) from 250° at 37 min

Support USWX by starting your Amazon purchase here.